Rechercher aéroport 
image banner adimage banner adimage banner ad
image banner ad

CN02 - San Francisco Va Medical Center

Situé à San Francisco, United States

ICAO - CN02, IATA -

Données fournies par Airmate  

Information générale

Coordonnées: N37°47'1" W122°30'24"
Élévation : 350 feet MSL.
 
Voir autres Aéroports à California

Données opérationnelles

Special qualification required
Heure actuelle UTC:
Heure actuelle locale:
Météo à : KSFO - San Francisco Intl ( 22 km )
METAR: KSFO 300056Z 30018KT 10SM FEW004 FEW150 BKN180 19/13 A2988 RMK AO2 SLP117 T01940133 $
TAF: KSFO 292339Z 3000/3106 30019KT P6SM BKN200 FM300400 30013KT P6SM FEW010 FEW150 FM301000 VRB05KT P6SM SCT008 TEMPO 3012/3014 BKN008 FM301600 VRB03KT P6SM FEW150 FM302100 30012KT P6SM FEW150 FM310100 28015KT P6SM FEW015 FEW150
Voir NOTAMs / SUP AIP / TFR affectant cet aéroport [VIEW]
Fréquences de communication: [VIEW]

Pistes:

Coordonnées de l'aéroport

Adresse: San Francisco United States

Vue satellite de CN02